Hauptseite
METAR-TAF:

METAR-TAF

Flughäfen :

Memmingen, Deutschland

Breite: 47-59-33N, Länge: 10-14-37E, Höhe: 633 m

Beobachtung

Neuester Wetterbericht von vor 3 Stunden und 33 Minuten, um 21:50 UTC
Wind 16 kt aus Ost/Nordost
Temperatur -6°C
Luftfeuchtigkeit 68%
Luftdruck 1017 hPa
Sichtweite 10 km oder mehr
keine Wolken unter 1500 m und keine Kumulonimbus oder Gewitterwolken

METAR: EDJA 242150Z 06016KT CAVOK M06/M11 Q1017

Zeit: 02:23 (01:23 UTC)

Prognose

Neuester Wetterbericht von vor 8 Stunden und 23 Minuten, um 17:00 UTC
Gültige Prognose vom 24 um 18 UTC bis 25 um 03 UTC
Wind 15 kt aus Ost/Nordost, Böen bis zu 25 kt
Sichtweite 10 km oder mehr
keine Wolken unter 1500 m und keine Kumulonimbus oder Gewitterwolken
Übergehend zu
vom 24 um 20 UTC bis 24 um 23 UTC
Durchbrochene Bewölkung in der Höhe von 1200 ft

TAF: EDJA 241700Z 2418/2503 06015G25KT CAVOK BECMG 2420/2423 BKN012

Wetterbeobachtungen und Prognosen von mehr als 4000 Flughäfen (METAR und TAF Bericht).

Die verfügbaren Stationen werden durch gelbe und rote Markierungen auf der Karte dargestellt.

Führen Sie die Maus auf sie, um den Namen der Station zu sehen.

Darauf klicken, um die Beobachtung von Wetterbeobachtungen und Prognosen zu sehen.

Um die Karte zu ändern : klicken Sie auf den grünen Tasten mit einem schwarzen Kreuz Zum Vergrößern, auf den grünen Button mit einem Gedankenstrich zu verkleinern, oder auf die grünen Pfeile für benachbarte Karten.


METAR-TAF: